Time;durP1;ratioP1;P1;durP2;ratioP2;P2;SDS_P1;SDS_P2;PMS_P1;PMS_P2;Temp;Humidity;BMP_temperature;BMP_pressure;BME280_temperature;BME280_humidity;BME280_pressure;Samples;Min_cycle;Max_cycle;Signal;HPM_P1;HPM_P2
2023/01/09 00:00:12;;;;;;;13.10;11.87;;;7.30;99.90;;;;;;5030729;28;20187;-73
2023/01/09 00:02:39;;;;;;;12.60;11.50;;;7.30;99.90;;;;;;5031097;28;20225;-74
2023/01/09 00:05:07;;;;;;;14.77;13.57;;;7.30;99.90;;;;;;5010537;28;20831;-74
2023/01/09 00:07:33;;;;;;;21.90;20.23;;;7.30;99.90;;;;;;5009492;28;20819;-73
2023/01/09 00:09:58;;;;;;;19.53;18.03;;;7.30;99.90;;;;;;5011179;28;20298;-73
2023/01/09 00:12:24;;;;;;;18.63;17.17;;;7.20;99.90;;;;;;5009929;28;20216;-74
2023/01/09 00:14:50;;;;;;;18.17;16.77;;;7.20;99.90;;;;;;5011096;28;20191;-74
2023/01/09 00:17:16;;;;;;;17.80;16.30;;;7.30;99.90;;;;;;5012273;28;20179;-73
2023/01/09 00:19:41;;;;;;;23.10;21.40;;;7.30;99.90;;;;;;5029681;28;20202;-74
2023/01/09 00:22:08;;;;;;;23.23;21.53;;;7.20;99.90;;;;;;5032428;28;20213;-74
2023/01/09 00:24:35;;;;;;;17.10;15.80;;;7.30;99.90;;;;;;5029679;28;20231;-73
2023/01/09 00:27:02;;;;;;;16.37;14.97;;;7.30;99.90;;;;;;5030418;28;20183;-73
2023/01/09 00:29:27;;;;;;;15.40;14.00;;;7.30;99.90;;;;;;5030648;28;20187;-73
2023/01/09 00:31:53;;;;;;;18.03;16.60;;;7.30;99.90;;;;;;5028729;28;20762;-74
2023/01/09 00:34:19;;;;;;;17.63;16.17;;;7.30;99.90;;;;;;5030765;28;20202;-74
2023/01/09 00:36:45;;;;;;;18.63;17.23;;;7.30;99.90;;;;;;5030341;28;20174;-74
2023/01/09 00:39:11;;;;;;;20.27;18.70;;;7.30;99.90;;;;;;5030684;28;20175;-73
2023/01/09 00:41:43;;;;;;;24.73;22.77;;;7.30;99.90;;;;;;5028668;28;20648;-73
2023/01/09 00:44:20;;;;;;;22.60;21.00;;;7.40;99.90;;;;;;5030609;28;20175;-73
2023/01/09 00:46:50;;;;;;;22.90;20.93;;;7.30;99.90;;;;;;5016079;28;20235;-73
2023/01/09 00:49:17;;;;;;;22.63;20.93;;;7.30;99.90;;;;;;5010988;28;20175;-74
2023/01/09 00:51:43;;;;;;;27.70;25.80;;;7.30;99.90;;;;;;5010368;28;20203;-73
2023/01/09 00:54:15;;;;;;;28.67;26.67;;;7.20;99.90;;;;;;5010724;28;20241;-73
2023/01/09 00:56:41;;;;;;;22.33;20.63;;;7.20;99.90;;;;;;5008090;28;20261;-73
2023/01/09 00:59:07;;;;;;;16.53;14.97;;;7.20;99.90;;;;;;5007108;28;20840;-73
2023/01/09 01:01:32;;;;;;;21.40;19.50;;;7.20;99.90;;;;;;5012911;28;20755;-74
2023/01/09 01:07:37;;;;;;;33.97;31.57;;;7.20;99.90;;;;;;5025073;28;20186;-74
2023/01/09 01:09:28;;;;;;;33.83;31.47;;;7.20;99.90;;;;;;5030125;28;20175;-73
2023/01/09 01:11:54;;;;;;;34.20;31.60;;;7.10;99.90;;;;;;5023971;28;20226;-73
2023/01/09 01:14:20;;;;;;;35.30;32.90;;;7.10;99.90;;;;;;5019413;28;20187;-74
2023/01/09 01:16:45;;;;;;;39.17;36.33;;;7.10;99.90;;;;;;5013772;28;20183;-73
2023/01/09 01:19:11;;;;;;;38.30;35.77;;;7.20;99.90;;;;;;5014523;28;20176;-74
2023/01/09 01:21:37;;;;;;;42.17;39.40;;;7.10;99.90;;;;;;5014088;28;20186;-74
2023/01/09 01:24:03;;;;;;;36.90;34.57;;;7.10;99.90;;;;;;5014200;28;20245;-74
2023/01/09 01:26:30;;;;;;;40.37;37.80;;;7.20;99.90;;;;;;5014483;28;20182;-73
2023/01/09 01:28:57;;;;;;;30.50;28.40;;;7.20;99.90;;;;;;5025271;28;20190;-74
2023/01/09 01:31:23;;;;;;;20.33;18.93;;;7.20;99.90;;;;;;5033539;28;20179;-73
2023/01/09 01:33:49;;;;;;;18.57;17.07;;;7.20;99.90;;;;;;5032850;28;20257;-73
2023/01/09 01:36:16;;;;;;;20.83;19.33;;;7.30;99.90;;;;;;5033698;28;20636;-73
2023/01/09 01:38:42;;;;;;;19.43;18.10;;;7.20;99.90;;;;;;5032953;28;20553;-73
2023/01/09 01:41:08;;;;;;;15.67;14.47;;;7.30;99.90;;;;;;5033337;28;20171;-74
2023/01/09 01:43:53;;;;;;;18.90;17.53;;;7.20;99.90;;;;;;5009990;28;20230;-74
2023/01/09 01:46:19;;;;;;;12.40;11.20;;;7.30;99.90;;;;;;5012462;28;20184;-74
2023/01/09 01:48:49;;;;;;;11.43;10.03;;;7.30;99.90;;;;;;5011480;28;20940;-73
2023/01/09 01:51:19;;;;;;;16.17;14.80;;;7.30;99.90;;;;;;5011662;28;20194;-73
2023/01/09 01:53:50;;;;;;;11.87;10.57;;;7.30;99.90;;;;;;5011733;28;20207;-73
2023/01/09 01:56:16;;;;;;;12.17;11.07;;;7.30;99.90;;;;;;5016937;28;20186;-74
2023/01/09 01:58:48;;;;;;;17.10;15.73;;;7.20;99.90;;;;;;5031419;28;20185;-73
2023/01/09 02:01:15;;;;;;;21.50;19.97;;;7.30;99.90;;;;;;5032333;28;20241;-73
2023/01/09 02:03:42;;;;;;;18.37;17.03;;;7.30;99.90;;;;;;5033007;28;20195;-73
2023/01/09 02:06:09;;;;;;;17.23;15.97;;;7.30;99.90;;;;;;5032153;28;20189;-73
2023/01/09 02:08:36;;;;;;;19.97;18.73;;;7.30;99.90;;;;;;5032023;28;20183;-73
2023/01/09 02:11:03;;;;;;;18.77;17.53;;;7.20;99.90;;;;;;5021398;28;20275;-73
2023/01/09 02:13:30;;;;;;;20.00;18.70;;;7.30;99.90;;;;;;5018013;28;20231;-73
2023/01/09 02:16:05;;;;;;;17.20;13.27;;;7.30;99.90;;;;;;5016639;28;20185;-73
2023/01/09 02:18:53;;;;;;;14.93;13.70;;;7.30;99.90;;;;;;5011474;28;20195;-74
2023/01/09 02:21:18;;;;;;;13.07;11.87;;;7.30;99.90;;;;;;5011601;28;20180;-74
2023/01/09 02:24:02;;;;;;;11.07;10.37;;;7.30;99.90;;;;;;5011926;28;20203;-74
2023/01/09 02:27:05;;;;;;;11.00;10.00;;;7.30;99.90;;;;;;4993886;28;20311;-74
2023/01/09 02:29:55;;;;;;;8.87;8.27;;;7.30;99.90;;;;;;4992482;28;20247;-74
2023/01/09 02:32:29;;;;;;;8.70;8.10;;;7.30;99.90;;;;;;4991757;28;20270;-74
2023/01/09 02:35:21;;;;;;;10.53;9.87;;;7.30;99.90;;;;;;4993560;28;20270;-74
2023/01/09 02:38:09;;;;;;;19.10;17.77;;;7.30;99.90;;;;;;4973547;28;20581;-74
2023/01/09 02:40:40;;;;;;;15.73;14.83;;;7.40;99.90;;;;;;5002496;28;20565;-74
2023/01/09 02:43:08;;;;;;;9.90;9.40;;;7.40;99.90;;;;;;5012420;28;20786;-74
2023/01/09 02:45:33;;;;;;;8.07;7.67;;;7.40;99.90;;;;;;5012966;28;20191;-74
2023/01/09 02:47:59;;;;;;;6.80;6.30;;;7.40;99.90;;;;;;5009293;28;20214;-74
2023/01/09 02:50:35;;;;;;;6.10;5.63;;;7.40;99.90;;;;;;5011940;28;20271;-74
2023/01/09 02:53:35;;;;;;;5.63;5.40;;;7.40;99.90;;;;;;5012194;28;20220;-74
2023/01/09 02:56:42;;;;;;;4.83;4.63;;;7.40;99.90;;;;;;5012133;28;20814;-74
2023/01/09 02:59:17;;;;;;;4.73;4.53;;;7.40;99.90;;;;;;5010327;28;20184;-75
2023/01/09 03:02:13;;;;;;;10.83;10.40;;;7.40;99.90;;;;;;5010663;28;20683;-74
2023/01/09 03:04:51;;;;;;;29.67;28.27;;;7.40;99.90;;;;;;5025663;28;20179;-74
2023/01/09 03:07:25;;;;;;;34.00;32.43;;;7.40;99.90;;;;;;5031347;28;20186;-73
2023/01/09 03:09:57;;;;;;;25.10;23.83;;;7.40;99.90;;;;;;5031993;28;20963;-74
2023/01/09 03:12:26;;;;;;;15.00;14.27;;;7.50;99.90;;;;;;5031756;28;20230;-73
2023/01/09 03:14:57;;;;;;;11.13;10.67;;;7.50;99.90;;;;;;5031885;28;20171;-74
2023/01/09 03:17:51;;;;;;;7.47;6.93;;;7.50;99.90;;;;;;5026068;28;20180;-74
2023/01/09 03:20:22;;;;;;;6.17;5.60;;;7.50;99.90;;;;;;5007505;28;20769;-75
2023/01/09 03:22:56;;;;;;;5.20;5.00;;;7.50;99.90;;;;;;5011735;28;20207;-75
2023/01/09 03:25:23;;;;;;;5.30;5.10;;;7.50;99.90;;;;;;5010632;28;20210;-75
2023/01/09 03:27:54;;;;;;;5.73;5.53;;;7.60;99.90;;;;;;5010077;28;20210;-74
2023/01/09 03:30:20;;;;;;;5.63;5.43;;;7.60;99.90;;;;;;5011736;28;20555;-74
2023/01/09 03:32:46;;;;;;;6.10;5.90;;;7.60;99.90;;;;;;5021034;28;20203;-74
2023/01/09 03:35:12;;;;;;;5.43;5.27;;;7.60;99.90;;;;;;5031794;28;20652;-74
2023/01/09 03:37:38;;;;;;;5.40;5.20;;;7.60;99.90;;;;;;5030591;28;20175;-74
2023/01/09 03:40:04;;;;;;;5.53;5.23;;;7.60;99.90;;;;;;5030239;28;20596;-74
2023/01/09 03:42:30;;;;;;;4.90;4.70;;;7.50;99.90;;;;;;5022158;28;20644;-75
2023/01/09 03:44:56;;;;;;;4.70;4.53;;;7.50;99.90;;;;;;5011625;28;20195;-75
2023/01/09 03:47:21;;;;;;;4.33;4.23;;;7.50;99.90;;;;;;5011161;28;20318;-75
2023/01/09 03:49:47;;;;;;;4.67;4.57;;;7.50;99.90;;;;;;5007762;28;20245;-76
2023/01/09 03:52:13;;;;;;;4.40;4.30;;;7.50;99.90;;;;;;5017939;28;20202;-75
2023/01/09 03:54:39;;;;;;;4.70;4.60;;;7.50;99.90;;;;;;5031392;28;20189;-75
2023/01/09 03:57:04;;;;;;;4.53;4.43;;;7.50;99.90;;;;;;5029149;28;20178;-74
2023/01/09 03:59:30;;;;;;;4.73;4.43;;;7.50;99.90;;;;;;5031204;28;20179;-75
2023/01/09 04:01:56;;;;;;;4.63;4.50;;;7.50;99.90;;;;;;5029263;28;20877;-75
2023/01/09 04:04:21;;;;;;;4.93;4.77;;;7.50;99.90;;;;;;5021226;28;20218;-75
2023/01/09 04:06:47;;;;;;;4.30;4.20;;;7.50;99.90;;;;;;5010310;28;20207;-75
2023/01/09 04:09:13;;;;;;;4.70;4.50;;;7.40;99.90;;;;;;5011198;28;20215;-75
2023/01/09 04:11:39;;;;;;;4.27;4.17;;;7.40;99.90;;;;;;5009545;28;20266;-75
2023/01/09 04:14:04;;;;;;;4.50;4.40;;;7.30;99.90;;;;;;5011272;28;20195;-75
2023/01/09 04:16:30;;;;;;;6.20;5.90;;;7.40;99.90;;;;;;5016480;28;20199;-74
2023/01/09 04:18:56;;;;;;;6.50;6.30;;;7.30;99.90;;;;;;5024513;28;20248;-74
2023/01/09 04:21:21;;;;;;;5.67;5.50;;;7.30;99.90;;;;;;5010680;28;20629;-75
2023/01/09 04:23:47;;;;;;;6.20;6.00;;;7.30;99.90;;;;;;5010021;28;20187;-75
2023/01/09 04:26:13;;;;;;;5.57;5.37;;;7.30;99.90;;;;;;5011038;28;20188;-75
2023/01/09 04:28:39;;;;;;;5.60;5.40;;;7.30;99.90;;;;;;5017370;28;20219;-75
2023/01/09 04:31:05;;;;;;;195.83;186.07;;;7.20;99.90;;;;;;5010568;28;20212;-74
2023/01/09 04:33:30;;;;;;;115.00;109.47;;;7.30;99.90;;;;;;5011151;28;20227;-75
2023/01/09 04:35:56;;;;;;;23.73;22.70;;;7.20;99.90;;;;;;5010015;28;20203;-75
2023/01/09 04:38:22;;;;;;;150.10;143.10;;;7.20;99.90;;;;;;5009467;28;20188;-76
2023/01/09 04:40:48;;;;;;;75.43;71.97;;;7.20;99.90;;;;;;5009268;28;20184;-75
2023/01/09 04:43:14;;;;;;;127.17;121.20;;;7.20;99.90;;;;;;5010684;28;20775;-75
2023/01/09 04:45:40;;;;;;;72.00;68.00;;;7.10;99.90;;;;;;5009471;28;20695;-75
2023/01/09 04:48:06;;;;;;;6.20;6.00;;;7.10;99.90;;;;;;5008360;28;20199;-75
2023/01/09 04:50:31;;;;;;;6.67;6.47;;;7.00;99.90;;;;;;5009063;28;20183;-75
2023/01/09 04:52:57;;;;;;;4.10;4.00;;;6.90;99.90;;;;;;5010647;28;20627;-75
2023/01/09 04:55:23;;;;;;;5.97;5.77;;;6.80;99.90;;;;;;5010618;28;20750;-75
2023/01/09 04:57:49;;;;;;;26.23;25.07;;;6.80;99.90;;;;;;5008827;28;20180;-76
2023/01/09 05:00:15;;;;;;;7.47;7.27;;;6.80;99.90;;;;;;5010595;28;20180;-75
2023/01/09 05:02:40;;;;;;;10.77;10.37;;;6.70;99.90;;;;;;5010605;28;20302;-75
2023/01/09 05:05:08;;;;;;;6.57;6.37;;;6.70;99.90;;;;;;5004550;28;20296;-70
2023/01/09 05:07:34;;;;;;;4.20;4.10;;;6.70;99.90;;;;;;5009522;28;20223;-70
2023/01/09 05:10:01;;;;;;;5.80;5.60;;;6.70;99.90;;;;;;5000369;28;20576;-70
2023/01/09 05:12:27;;;;;;;5.87;5.67;;;6.70;99.90;;;;;;5009700;28;20211;-70
2023/01/09 05:14:52;;;;;;;8.27;7.97;;;6.70;99.90;;;;;;5009766;28;20310;-70
2023/01/09 05:17:18;;;;;;;5.80;5.60;;;6.80;99.90;;;;;;5007645;28;20180;-70
2023/01/09 05:19:44;;;;;;;6.00;5.80;;;6.70;99.90;;;;;;5009768;28;20172;-70
2023/01/09 05:22:11;;;;;;;16.67;15.97;;;6.70;99.90;;;;;;5010571;28;20669;-70
2023/01/09 05:24:37;;;;;;;35.17;32.97;;;6.70;99.90;;;;;;5009419;28;20652;-70
2023/01/09 05:27:03;;;;;;;18.37;17.60;;;6.70;99.90;;;;;;5008516;28;20191;-70
2023/01/09 05:29:29;;;;;;;8.30;8.00;;;6.70;99.90;;;;;;5009979;28;20269;-70
2023/01/09 05:31:55;;;;;;;8.90;8.60;;;6.70;99.90;;;;;;5009072;28;20207;-70
2023/01/09 05:34:21;;;;;;;14.20;13.60;;;6.70;99.90;;;;;;5010153;28;20211;-70
2023/01/09 05:36:46;;;;;;;26.90;25.67;;;6.60;99.90;;;;;;5009517;28;20191;-70
2023/01/09 05:39:12;;;;;;;20.50;19.60;;;6.60;99.90;;;;;;5009564;28;20180;-70
2023/01/09 05:41:38;;;;;;;13.10;12.60;;;6.70;99.90;;;;;;5008824;28;20266;-70
2023/01/09 05:44:04;;;;;;;8.00;7.60;;;6.60;99.90;;;;;;5012540;22;20728;-72
2023/01/09 05:46:31;;;;;;;6.23;6.03;;;6.70;99.90;;;;;;4988783;28;20181;-71
2023/01/09 05:48:57;;;;;;;7.83;7.33;;;6.60;99.90;;;;;;4986307;28;20181;-72
2023/01/09 05:51:23;;;;;;;8.03;7.73;;;6.60;99.90;;;;;;4990058;28;20193;-72
2023/01/09 05:53:48;;;;;;;7.50;7.07;;;6.50;99.90;;;;;;4988277;28;20216;-72
2023/01/09 05:56:14;;;;;;;7.27;6.80;;;6.50;99.90;;;;;;4991095;28;20658;-72
2023/01/09 05:58:40;;;;;;;5.20;5.10;;;6.40;99.90;;;;;;4992995;28;20176;-71
2023/01/09 06:01:06;;;;;;;6.37;6.17;;;6.30;99.90;;;;;;4992611;28;20184;-72
2023/01/09 06:03:32;;;;;;;5.73;5.53;;;6.30;99.90;;;;;;4993585;28;20207;-72
2023/01/09 06:05:58;;;;;;;8.60;8.20;;;6.30;99.90;;;;;;4994026;28;20185;-72
2023/01/09 06:08:24;;;;;;;12.43;11.87;;;6.30;99.90;;;;;;4992217;28;20680;-72
2023/01/09 06:10:50;;;;;;;6.97;6.57;;;6.20;99.90;;;;;;4993171;28;20222;-72
2023/01/09 06:13:15;;;;;;;24.83;23.73;;;6.10;99.90;;;;;;4991975;28;20772;-72
2023/01/09 06:15:42;;;;;;;17.83;17.07;;;6.00;99.90;;;;;;5002534;28;20210;-72
2023/01/09 06:18:07;;;;;;;8.20;7.90;;;5.90;99.90;;;;;;5000164;28;20193;-74
2023/01/09 06:20:34;;;;;;;8.43;8.13;;;5.90;99.90;;;;;;4993756;28;20194;-72
2023/01/09 06:22:59;;;;;;;8.97;8.67;;;5.90;99.90;;;;;;4991668;28;20228;-72
2023/01/09 06:25:25;;;;;;;4.77;4.50;;;5.80;99.90;;;;;;4993379;28;20184;-72
2023/01/09 06:27:51;;;;;;;4.57;4.37;;;5.80;99.90;;;;;;5004860;28;20230;-71
2023/01/09 06:30:18;;;;;;;4.00;3.80;;;5.90;99.90;;;;;;5011598;28;20209;-71
2023/01/09 06:32:44;;;;;;;7.00;6.80;;;5.80;99.90;;;;;;5011553;28;20238;-71
2023/01/09 06:35:10;;;;;;;9.13;8.73;;;5.80;99.90;;;;;;5011359;28;20180;-71
2023/01/09 06:37:36;;;;;;;11.10;10.67;;;5.80;99.90;;;;;;5011194;28;20275;-72
2023/01/09 06:40:02;;;;;;;14.77;14.07;;;5.80;99.90;;;;;;5012186;28;20274;-72
2023/01/09 06:42:27;;;;;;;8.70;8.37;;;5.80;99.90;;;;;;5012141;28;20277;-71
2023/01/09 06:44:53;;;;;;;6.17;5.97;;;5.80;99.90;;;;;;5011595;28;20680;-71
2023/01/09 06:47:19;;;;;;;4.50;4.40;;;5.80;99.90;;;;;;5011612;28;20183;-75
2023/01/09 06:49:45;;;;;;;4.53;4.43;;;5.80;99.90;;;;;;5011951;28;20187;-72
2023/01/09 06:52:11;;;;;;;4.60;4.23;;;5.80;99.90;;;;;;5012202;28;20281;-72
2023/01/09 06:54:36;;;;;;;7.37;7.07;;;5.90;99.90;;;;;;5011146;28;20190;-72
2023/01/09 06:57:02;;;;;;;7.50;7.17;;;5.90;99.90;;;;;;5023725;28;20199;-72
2023/01/09 06:59:28;;;;;;;8.77;8.47;;;5.90;99.90;;;;;;5020930;28;20545;-72
2023/01/09 07:01:54;;;;;;;8.60;8.20;;;6.00;99.90;;;;;;5012340;28;20198;-72
2023/01/09 07:04:21;;;;;;;15.27;14.67;;;6.00;99.90;;;;;;5002541;28;20175;-72
2023/01/09 07:06:47;;;;;;;29.83;28.27;;;6.00;99.90;;;;;;4991519;28;20271;-72
2023/01/09 07:09:13;;;;;;;49.83;47.30;;;6.00;99.90;;;;;;4990903;28;20945;-72
2023/01/09 07:11:40;;;;;;;36.10;34.40;;;6.00;99.90;;;;;;4992084;28;20302;-72
2023/01/09 07:14:06;;;;;;;40.20;38.37;;;6.00;99.90;;;;;;4995479;28;20242;-72
2023/01/09 07:16:32;;;;;;;60.73;57.93;;;6.00;99.90;;;;;;4992396;28;20735;-72
2023/01/09 07:18:58;;;;;;;52.47;49.97;;;6.10;99.90;;;;;;4991544;28;20188;-72
2023/01/09 07:21:24;;;;;;;44.93;42.87;;;6.10;99.90;;;;;;4991746;28;20184;-73
2023/01/09 07:23:50;;;;;;;39.53;37.60;;;6.20;99.90;;;;;;4991439;28;20204;-72
2023/01/09 07:26:15;;;;;;;34.63;32.80;;;6.20;99.90;;;;;;4992182;28;20195;-72
2023/01/09 07:28:41;;;;;;;25.43;24.33;;;6.30;99.90;;;;;;4991472;28;20188;-72
2023/01/09 07:31:07;;;;;;;14.43;13.73;;;6.30;99.90;;;;;;4991545;28;20188;-72
2023/01/09 07:33:34;;;;;;;11.03;10.53;;;6.20;99.90;;;;;;4992143;28;20220;-72
2023/01/09 07:35:59;;;;;;;9.47;9.07;;;6.20;99.90;;;;;;4992273;28;20187;-72
2023/01/09 07:38:25;;;;;;;9.40;8.93;;;6.20;99.90;;;;;;4990874;28;20213;-72
2023/01/09 07:40:51;;;;;;;8.33;7.93;;;6.20;99.90;;;;;;4991441;28;20184;-72
2023/01/09 07:43:17;;;;;;;7.63;7.30;;;6.30;99.90;;;;;;4991656;28;20708;-72
2023/01/09 07:45:44;;;;;;;6.90;6.50;;;6.30;99.90;;;;;;4990020;28;20665;-73
2023/01/09 07:48:10;;;;;;;7.33;6.97;;;6.30;99.90;;;;;;4990251;28;20745;-72
2023/01/09 07:50:36;;;;;;;7.77;7.07;;;6.30;99.90;;;;;;4991318;28;20271;-72
2023/01/09 07:53:01;;;;;;;9.13;8.77;;;6.30;99.90;;;;;;4991124;28;20216;-72
2023/01/09 07:55:27;;;;;;;10.40;10.00;;;6.30;99.90;;;;;;5000255;28;20164;-72
2023/01/09 07:57:53;;;;;;;8.17;7.77;;;6.30;99.90;;;;;;4998623;28;20712;-72
2023/01/09 08:00:19;;;;;;;8.10;7.70;;;6.30;99.90;;;;;;4990800;28;20550;-72
2023/01/09 08:02:50;;;;;;;8.17;7.77;;;6.40;99.90;;;;;;4976530;28;20702;-72
2023/01/09 08:05:17;;;;;;;7.30;6.67;;;6.40;99.90;;;;;;4971590;28;20264;-72
2023/01/09 08:07:43;;;;;;;7.87;7.57;;;6.50;99.90;;;;;;4971424;28;20185;-71
2023/01/09 08:10:10;;;;;;;9.07;8.70;;;6.50;99.90;;;;;;4971950;28;20196;-72
2023/01/09 08:12:36;;;;;;;14.77;14.10;;;6.70;99.90;;;;;;4973089;28;20694;-71
2023/01/09 08:15:02;;;;;;;18.90;17.93;;;6.70;99.90;;;;;;4986515;28;20196;-71
2023/01/09 08:17:29;;;;;;;21.53;20.53;;;6.80;99.90;;;;;;4973446;28;20184;-71
2023/01/09 08:19:56;;;;;;;19.50;18.57;;;6.90;99.90;;;;;;4971593;28;20191;-72
2023/01/09 08:22:22;;;;;;;11.07;10.13;;;7.00;99.90;;;;;;4972192;28;20201;-71
2023/01/09 08:24:48;;;;;;;6.57;6.27;;;7.00;99.90;;;;;;4972297;28;20177;-72
2023/01/09 08:27:13;;;;;;;5.23;4.90;;;7.10;99.90;;;;;;4971345;28;20216;-72
2023/01/09 08:29:39;;;;;;;4.57;4.37;;;7.00;99.90;;;;;;4970528;28;20189;-71
2023/01/09 08:32:05;;;;;;;5.53;5.30;;;7.10;99.90;;;;;;4972136;28;20700;-71
2023/01/09 08:34:31;;;;;;;5.43;4.70;;;7.20;99.90;;;;;;4972410;28;20184;-71
2023/01/09 08:36:57;;;;;;;7.50;7.07;;;7.40;99.90;;;;;;4971476;28;20181;-70
2023/01/09 08:39:23;;;;;;;17.30;16.30;;;7.50;99.90;;;;;;4972097;28;20188;-72
2023/01/09 08:47:22;;;;;;;12.00;11.33;;;7.30;99.90;;;;;;4971795;28;20185;-73
2023/01/09 08:49:48;;;;;;;10.63;9.87;;;7.20;99.90;;;;;;4971143;28;20185;-73
2023/01/09 08:52:13;;;;;;;8.90;8.30;;;7.20;99.90;;;;;;4971938;28;20213;-73
2023/01/09 08:54:39;;;;;;;10.47;9.90;;;7.00;99.90;;;;;;4971540;28;20181;-74
2023/01/09 08:57:06;;;;;;;11.07;10.10;;;6.90;99.90;;;;;;4977666;28;20315;-73
2023/01/09 08:59:32;;;;;;;15.07;14.33;;;6.80;99.90;;;;;;4970459;28;20233;-73
2023/01/09 09:01:58;;;;;;;14.23;13.53;;;7.00;99.90;;;;;;4990644;28;20266;-73
2023/01/09 09:04:24;;;;;;;11.63;11.00;;;7.10;99.90;;;;;;5009787;28;20309;-73
2023/01/09 09:06:50;;;;;;;5.77;5.47;;;7.40;99.90;;;;;;5009903;28;20211;-73
2023/01/09 09:09:15;;;;;;;5.10;4.60;;;7.60;99.90;;;;;;5010363;28;20203;-73
2023/01/09 09:11:41;;;;;;;4.73;4.53;;;7.70;99.90;;;;;;5000166;28;20188;-74
2023/01/09 09:16:52;;;;;;;5.47;5.27;;;8.70;99.90;;;;;;4990273;28;20184;-73
2023/01/09 09:19:18;;;;;;;11.87;11.27;;;9.50;99.90;;;;;;4990103;28;20184;-75
2023/01/09 09:21:44;;;;;;;13.63;12.83;;;9.90;99.90;;;;;;4990329;28;20184;-74
2023/01/09 09:24:09;;;;;;;5.90;5.50;;;10.10;99.90;;;;;;4983134;28;20251;-72
2023/01/09 09:26:35;;;;;;;6.23;5.83;;;9.90;99.90;;;;;;4972961;28;20196;-74
2023/01/09 09:29:01;;;;;;;6.60;6.20;;;9.70;99.90;;;;;;4988580;28;20189;-72
2023/01/09 09:31:27;;;;;;;6.63;6.03;;;9.80;99.90;;;;;;5011208;28;20198;-72
2023/01/09 09:33:52;;;;;;;8.40;7.97;;;10.10;99.90;;;;;;5024011;28;20214;-72
2023/01/09 09:36:18;;;;;;;6.93;6.43;;;10.40;99.90;;;;;;5024221;28;20176;-72
2023/01/09 09:38:44;;;;;;;4.50;4.30;;;10.70;99.90;;;;;;5016780;28;20207;-73
2023/01/09 09:44:41;;;;;;;3.87;3.43;;;11.00;99.90;;;;;;5034419;28;20188;-72
2023/01/09 09:47:16;;;;;;;8.33;7.80;;;12.00;99.90;;;;;;4992862;28;20265;-72
2023/01/09 09:50:00;;;;;;;6.73;6.33;;;11.90;99.90;;;;;;4994103;28;20186;-72
2023/01/09 09:52:51;;;;;;;4.60;4.37;;;11.80;99.90;;;;;;4993557;28;20227;-74
2023/01/09 09:55:30;;;;;;;3.90;3.60;;;11.80;99.90;;;;;;4994067;28;20699;-72
2023/01/09 09:58:00;;;;;;;4.20;3.60;;;12.00;99.90;;;;;;4993712;28;20313;-72
2023/01/09 10:00:27;;;;;;;3.67;3.40;;;11.90;99.90;;;;;;4993279;28;20551;-71
2023/01/09 10:03:20;;;;;;;5.93;5.53;;;12.00;99.90;;;;;;4988123;28;20212;-71
2023/01/09 10:05:49;;;;;;;6.93;6.43;;;12.20;99.90;;;;;;4972399;28;20218;-71
2023/01/09 10:08:35;;;;;;;6.43;6.13;;;12.60;99.90;;;;;;4972588;28;20185;-72
2023/01/09 10:11:01;;;;;;;14.63;13.73;;;13.60;99.90;;;;;;4974770;28;20649;-72
2023/01/09 10:16:42;;;;;;;22.77;21.73;;;14.00;99.90;;;;;;4974796;28;20602;-72
2023/01/09 10:19:18;;;;;;;23.57;22.37;;;14.40;99.90;;;;;;4974075;28;20181;-72
2023/01/09 10:21:47;;;;;;;10.50;9.67;;;14.90;99.90;;;;;;4974393;28;20251;-72
2023/01/09 10:24:31;;;;;;;10.13;9.50;;;14.70;99.90;;;;;;4974580;28;20176;-73
2023/01/09 10:27:15;;;;;;;11.93;11.13;;;14.60;99.90;;;;;;4974046;28;20557;-72
2023/01/09 10:30:04;;;;;;;19.67;18.67;;;14.20;99.90;;;;;;4973570;28;20625;-72
2023/01/09 10:33:00;;;;;;;15.83;15.07;;;13.80;99.90;;;;;;4964327;28;20248;-72
2023/01/09 10:35:53;;;;;;;17.20;16.03;;;14.00;99.90;;;;;;4973044;28;20185;-72
2023/01/09 10:38:24;;;;;;;16.33;15.53;;;14.00;99.90;;;;;;4973143;28;20188;-72
2023/01/09 10:41:28;;;;;;;15.23;14.53;;;14.60;99.90;;;;;;4973611;28;20212;-72
2023/01/09 10:44:14;;;;;;;12.97;12.17;;;14.40;99.90;;;;;;4972432;28;20780;-72
2023/01/09 10:46:49;;;;;;;14.83;14.00;;;13.10;99.90;;;;;;4973709;28;20216;-72
2023/01/09 10:49:16;;;;;;;8.07;7.67;;;12.30;99.90;;;;;;4973646;28;20195;-72
2023/01/09 10:51:48;;;;;;;20.57;19.43;;;11.70;99.90;;;;;;4987685;28;20642;-71
2023/01/09 10:54:21;;;;;;;38.93;37.03;;;11.10;99.90;;;;;;4976487;28;20217;-72
2023/01/09 10:56:55;;;;;;;4.70;4.33;;;10.70;99.90;;;;;;4973714;28;20292;-72
2023/01/09 10:59:24;;;;;;;5.07;4.70;;;10.40;99.90;;;;;;4976702;28;20188;-73
2023/01/09 11:01:50;;;;;;;4.97;4.63;;;10.40;99.90;;;;;;4974195;28;20185;-72
2023/01/09 11:04:28;;;;;;;6.07;5.73;;;10.40;99.90;;;;;;4972253;28;20177;-73
2023/01/09 11:07:17;;;;;;;5.23;4.93;;;10.00;99.90;;;;;;4972806;28;20191;-72
2023/01/09 11:10:07;;;;;;;4.70;3.57;;;10.00;99.90;;;;;;4972910;28;20214;-72
2023/01/09 11:12:34;;;;;;;4.50;4.10;;;10.20;99.90;;;;;;4972035;28;20817;-72
2023/01/09 11:15:32;;;;;;;4.10;3.80;;;10.50;99.90;;;;;;4975461;28;20658;-71
2023/01/09 11:18:19;;;;;;;6.30;5.70;;;12.30;99.90;;;;;;4960157;28;20223;-70
2023/01/09 11:20:46;;;;;;;15.20;14.17;;;13.20;99.90;;;;;;5007793;28;20266;-71
2023/01/09 11:23:31;;;;;;;35.67;33.87;;;13.30;99.90;;;;;;5010406;28;20242;-71
2023/01/09 11:26:00;;;;;;;36.70;34.53;;;13.00;99.90;;;;;;5011404;28;20219;-72
2023/01/09 11:28:26;;;;;;;21.87;20.50;;;13.90;99.90;;;;;;5011450;28;20180;-72
2023/01/09 11:31:01;;;;;;;16.67;15.83;;;13.40;99.90;;;;;;5011250;28;20575;-72
2023/01/09 11:33:36;;;;;;;10.37;9.77;;;13.00;99.90;;;;;;5007692;28;20223;-72
2023/01/09 11:36:06;;;;;;;22.40;21.20;;;12.20;99.90;;;;;;4992466;28;20181;-72
2023/01/09 11:38:47;;;;;;;42.00;39.80;;;11.40;99.90;;;;;;4990794;28;20271;-72
2023/01/09 11:41:23;;;;;;;9.87;9.00;;;10.70;99.90;;;;;;4990786;28;20191;-72
2023/01/09 11:43:51;;;;;;;5.20;4.80;;;10.40;99.90;;;;;;5013761;22;20262;-69
2023/01/09 11:46:42;;;;;;;5.20;5.00;;;10.30;99.90;;;;;;4990944;28;20185;-71
2023/01/09 11:49:11;;;;;;;7.77;6.97;;;10.20;99.90;;;;;;4991131;28;20660;-68
2023/01/09 11:51:37;;;;;;;6.90;6.43;;;10.30;99.90;;;;;;4990936;28;20184;-69
2023/01/09 11:54:26;;;;;;;7.10;6.60;;;10.20;99.90;;;;;;4990414;28;20227;-70
2023/01/09 11:56:54;;;;;;;7.03;6.63;;;10.30;99.90;;;;;;4990670;28;20184;-68
2023/01/09 11:59:23;;;;;;;6.40;6.00;;;10.60;99.90;;;;;;4990931;28;20180;-69
2023/01/09 12:02:20;;;;;;;5.03;4.37;;;10.90;99.90;;;;;;4990634;28;20239;-68
2023/01/09 12:05:28;;;;;;;7.00;6.60;;;10.90;99.90;;;;;;4990825;28;20194;-69
2023/01/09 12:08:07;;;;;;;6.70;6.30;;;10.80;99.90;;;;;;4991298;28;20197;-69
2023/01/09 12:10:42;;;;;;;7.63;7.00;;;10.80;99.90;;;;;;4991274;28;20176;-68
2023/01/09 12:13:38;;;;;;;7.27;6.77;;;11.00;99.90;;;;;;4992218;28;20249;-68
2023/01/09 12:16:28;;;;;;;5.40;4.37;;;11.30;99.90;;;;;;4990943;28;20250;-68
2023/01/09 12:19:13;;;;;;;5.83;5.03;;;11.10;99.90;;;;;;4990022;28;20617;-68
2023/01/09 12:21:44;;;;;;;5.53;4.63;;;10.70;99.90;;;;;;4991521;28;20180;-69
2023/01/09 12:24:28;;;;;;;5.40;4.90;;;10.50;99.90;;;;;;4992006;28;20564;-69
2023/01/09 12:27:15;;;;;;;6.40;6.00;;;10.30;99.90;;;;;;4991874;28;20182;-68
2023/01/09 12:29:59;;;;;;;8.73;8.20;;;10.30;99.90;;;;;;4991044;28;20184;-68
2023/01/09 12:32:31;;;;;;;7.93;7.23;;;10.40;99.90;;;;;;4990068;28;20689;-68
2023/01/09 12:35:29;;;;;;;6.57;5.97;;;10.40;99.90;;;;;;4991455;28;20184;-68
2023/01/09 12:38:13;;;;;;;6.97;6.57;;;10.20;99.90;;;;;;4990486;28;20184;-68
2023/01/09 12:41:03;;;;;;;8.40;7.63;;;10.00;99.90;;;;;;4990979;28;20191;-68
2023/01/09 12:43:58;;;;;;;7.43;7.03;;;9.90;99.90;;;;;;4991064;28;20307;-67
2023/01/09 12:46:26;;;;;;;6.27;5.87;;;9.90;99.90;;;;;;4991298;28;20184;-68
2023/01/09 12:48:58;;;;;;;7.50;6.90;;;9.90;99.90;;;;;;4990497;28;20191;-68
2023/01/09 12:51:36;;;;;;;7.10;5.00;;;9.90;99.90;;;;;;4989832;28;20701;-68
2023/01/09 12:54:10;;;;;;;6.67;4.83;;;9.90;99.90;;;;;;4991162;28;20227;-68
2023/01/09 12:56:42;;;;;;;7.00;4.00;;;9.80;99.90;;;;;;4989994;28;20214;-68
2023/01/09 12:59:42;;;;;;;5.53;3.93;;;9.90;99.90;;;;;;4977744;28;20321;-70
2023/01/09 13:02:27;;;;;;;5.00;3.53;;;10.00;99.90;;;;;;4979366;28;20609;-70
2023/01/09 13:05:01;;;;;;;5.83;4.53;;;10.50;99.90;;;;;;5006881;28;20180;-69
2023/01/09 13:07:33;;;;;;;5.87;5.00;;;10.30;99.90;;;;;;5013970;28;20629;-69
2023/01/09 13:10:21;;;;;;;11.43;8.17;;;10.10;99.90;;;;;;5015022;28;20183;-69
2023/01/09 13:12:49;;;;;;;12.17;11.37;;;10.00;99.90;;;;;;5012444;28;20210;-70
2023/01/09 13:15:29;;;;;;;25.27;23.97;;;9.80;99.90;;;;;;5013230;28;20186;-71
2023/01/09 13:18:03;;;;;;;13.17;12.37;;;9.60;99.90;;;;;;4992330;28;20194;-70
2023/01/09 13:20:46;;;;;;;14.07;13.13;;;9.30;99.90;;;;;;4993926;28;20181;-70